Time;durP1;ratioP1;P1;durP2;ratioP2;P2;SDS_P1;SDS_P2;PMS_P1;PMS_P2;Temp;Humidity;BMP_temperature;BMP_pressure;BME280_temperature;BME280_humidity;BME280_pressure;Samples;Min_cycle;Max_cycle;Signal;HPM_P1;HPM_P2
2022/01/06 00:02:03;;;;;;;;;;;;;;;;;;5092915;28;20004;-61
2022/01/06 00:04:28;;;;;;;;;;;;;;;;;;5094267;28;20111;-63
2022/01/06 00:06:54;;;;;;;;;;;;;;;;;;5094268;28;20345;-63
2022/01/06 00:09:20;;;;;;;;;;;;;;;;;;5094467;28;20105;-62
2022/01/06 00:11:46;;;;;;;;;;;;;;;;;;5076562;28;19992;-62
2022/01/06 00:14:19;;;;;;;;;;;;;;;;;;5094263;28;20397;-62
2022/01/06 00:24:19;;;;;;;;;;;;;;;;;;5092059;28;20471;-63
2022/01/06 00:26:45;;;;;;;;;;;;;;;;;;5092545;28;19989;-63
2022/01/06 00:29:10;;;;;;;;;;;;;;;;;;5075580;28;20460;-63
2022/01/06 00:31:35;;;;;;;;;;;;;;;;;;5094114;28;20495;-62
2022/01/06 00:34:01;;;;;;;;;;;;;;;;;;5093802;28;20638;-62
2022/01/06 00:36:26;;;;;;;;;;;;;;;;;;5093896;28;19997;-63
2022/01/06 00:38:51;;;;;;;;;;;;;;;;;;5092821;28;19995;-63
2022/01/06 00:41:17;;;;;;;;;;;;;;;;;;5091850;28;19984;-63
2022/01/06 00:43:42;;;;;;;;;;;;;;;;;;5091678;28;19996;-63
2022/01/06 00:46:07;;;;;;;;;;;;;;;;;;5091781;28;20039;-63
2022/01/06 00:48:32;;;;;;;;;;;;;;;;;;5073388;28;19997;-63
2022/01/06 00:50:58;;;;;;;;;;;;;;;;;;5092158;28;20459;-64
2022/01/06 00:53:23;;;;;;;;;;;;;;;;;;5091953;28;20083;-61
2022/01/06 00:55:48;;;;;;;;;;;;;;;;;;5075753;28;19996;-62
2022/01/06 00:58:14;;;;;;;;;;;;;;;;;;5093705;28;20085;-62
2022/01/06 01:00:40;;;;;;;;;;;;;;;;;;5075505;28;20091;-62
2022/01/06 01:03:05;;;;;;;;;;;;;;;;;;5075327;28;20459;-62
2022/01/06 01:05:30;;;;;;;;;;;;;;;;;;5075451;28;19993;-62
2022/01/06 01:07:55;;;;;;;;;;;;;;;;;;5093386;28;20359;-62
2022/01/06 01:10:21;;;;;;;;;;;;;;;;;;5074813;28;20019;-62
2022/01/06 01:12:48;;;;;;;;;;;;;;;;;;5093205;28;19992;-61
2022/01/06 01:15:19;;;;;;;;;;;;;;;;;;5075269;28;20420;-61
2022/01/06 01:17:45;;;;;;;;;;;;;;;;;;5075145;28;20034;-62
2022/01/06 01:20:11;;;;;;;;;;;;;;;;;;5075204;28;19996;-62
2022/01/06 01:22:36;;;;;;;;;;;;;;;;;;5093180;28;19991;-62
2022/01/06 01:25:02;;;;;;;;;;;;;;;;;;5075144;28;19997;-62
2022/01/06 01:27:35;;;;;;;;;;;;;;;;;;5091914;28;19999;-62
2022/01/06 01:30:09;;;;;;;;;;;;;;;;;;5093230;28;20070;-60
2022/01/06 01:32:36;;;;;;;;;;;;;;;;;;5093040;28;19997;-63
2022/01/06 01:35:02;;;;;;;;;;;;;;;;;;5075015;28;19997;-61
2022/01/06 01:37:27;;;;;;;;;;;;;;;;;;5093218;28;19985;-62
2022/01/06 01:39:53;;;;;;;;;;;;;;;;;;5092866;28;20406;-61
2022/01/06 01:42:18;;;;;;;;;;;;;;;;;;5093116;28;19992;-61
2022/01/06 01:44:44;;;;;;;;;;;;;;;;;;5093075;28;19989;-62
2022/01/06 01:47:14;;;;;;;;;;;;;;;;;;5074681;28;19996;-63
2022/01/06 01:52:14;;;;;;;;;;;;;;;;;;5092539;28;20340;-62
2022/01/06 01:54:39;;;;;;;;;;;;;;;;;;5092780;28;19999;-61
2022/01/06 01:57:04;;;;;;;;;;;;;;;;;;5092947;28;19989;-61
2022/01/06 01:59:29;;;;;;;;;;;;;;;;;;5092964;28;20501;-63
2022/01/06 02:01:55;;;;;;;;;;;;;;;;;;5074510;28;19992;-64
2022/01/06 02:04:20;;;;;;;;;;;;;;;;;;5092679;28;20016;-62
2022/01/06 02:06:45;;;;;;;;;;;;;;;;;;5092833;28;20351;-62
2022/01/06 02:09:11;;;;;;;;;;;;;;;;;;5092528;28;20016;-62
2022/01/06 02:11:36;;;;;;;;;;;;;;;;;;5092600;28;20087;-62
2022/01/06 02:14:05;;;;;;;;;;;;;;;;;;5092645;28;19989;-62
2022/01/06 02:16:30;;;;;;;;;;;;;;;;;;5073558;28;20907;-61
2022/01/06 02:18:55;;;;;;;;;;;;;;;;;;5091701;28;20000;-63
2022/01/06 02:21:20;;;;;;;;;;;;;;;;;;5092623;28;19996;-61
2022/01/06 02:23:46;;;;;;;;;;;;;;;;;;5094462;28;19992;-61
2022/01/06 02:26:11;;;;;;;;;;;;;;;;;;5096060;28;20467;-61
2022/01/06 02:28:36;;;;;;;;;;;;;;;;;;5096057;28;20062;-62
2022/01/06 02:31:01;;;;;;;;;;;;;;;;;;5095748;28;20032;-62
2022/01/06 02:33:27;;;;;;;;;;;;;;;;;;5096289;28;19993;-62
2022/01/06 02:35:54;;;;;;;;;;;;;;;;;;5077792;28;19999;-61
2022/01/06 02:38:19;;;;;;;;;;;;;;;;;;5095891;28;19985;-62
2022/01/06 02:40:44;;;;;;;;;;;;;;;;;;5095778;28;20043;-61
2022/01/06 02:43:09;;;;;;;;;;;;;;;;;;5095974;28;20401;-61
2022/01/06 02:45:35;;;;;;;;;;;;;;;;;;5095701;28;19985;-62
2022/01/06 02:48:05;;;;;;;;;;;;;;;;;;5077352;28;20011;-61
2022/01/06 02:50:31;;;;;;;;;;;;;;;;;;5094637;28;20095;-61
2022/01/06 02:52:56;;;;;;;;;;;;;;;;;;5095765;28;20021;-62
2022/01/06 02:55:21;;;;;;;;;;;;;;;;;;5096078;28;19995;-61
2022/01/06 02:57:47;;;;;;;;;;;;;;;;;;5095632;28;20047;-61
2022/01/06 03:00:12;;;;;;;;;;;;;;;;;;5095557;28;20447;-62
2022/01/06 03:02:38;;;;;;;;;;;;;;;;;;5095469;28;20462;-61
2022/01/06 03:05:03;;;;;;;;;;;;;;;;;;5094293;28;19997;-61
2022/01/06 03:07:29;;;;;;;;;;;;;;;;;;5095502;28;19992;-61
2022/01/06 03:09:56;;;;;;;;;;;;;;;;;;5095603;28;20152;-61
2022/01/06 03:12:27;;;;;;;;;;;;;;;;;;5095777;28;19984;-61
2022/01/06 03:14:52;;;;;;;;;;;;;;;;;;5093982;28;20499;-61
2022/01/06 03:17:17;;;;;;;;;;;;;;;;;;5095282;28;20084;-61
2022/01/06 03:19:42;;;;;;;;;;;;;;;;;;5095312;28;19997;-61
2022/01/06 03:22:08;;;;;;;;;;;;;;;;;;5095412;28;20510;-61
2022/01/06 03:24:33;;;;;;;;;;;;;;;;;;5095068;28;20091;-60
2022/01/06 03:26:58;;;;;;;;;;;;;;;;;;5077008;28;20000;-62
2022/01/06 03:29:23;;;;;;;;;;;;;;;;;;5094902;28;20103;-62
2022/01/06 03:31:49;;;;;;;;;;;;;;;;;;5095068;28;19989;-63
2022/01/06 03:34:14;;;;;;;;;;;;;;;;;;5094625;28;19996;-61
2022/01/06 03:36:39;;;;;;;;;;;;;;;;;;5095073;28;20037;-61
2022/01/06 03:39:04;;;;;;;;;;;;;;;;;;5095117;28;19989;-61
2022/01/06 03:41:30;;;;;;;;;;;;;;;;;;5094794;28;20000;-61
2022/01/06 03:43:55;;;;;;;;;;;;;;;;;;5094657;28;19992;-62
2022/01/06 03:46:20;;;;;;;;;;;;;;;;;;5094933;28;19989;-61
2022/01/06 03:48:45;;;;;;;;;;;;;;;;;;5094633;28;20009;-60
2022/01/06 03:51:12;;;;;;;;;;;;;;;;;;5094868;28;20379;-61
2022/01/06 03:53:37;;;;;;;;;;;;;;;;;;5094860;28;19989;-62
2022/01/06 03:56:03;;;;;;;;;;;;;;;;;;5094645;28;20344;-61
2022/01/06 03:58:28;;;;;;;;;;;;;;;;;;5094646;28;19997;-61
2022/01/06 04:00:53;;;;;;;;;;;;;;;;;;5076304;28;20000;-61
2022/01/06 04:03:18;;;;;;;;;;;;;;;;;;5080186;28;20019;-61
2022/01/06 04:05:43;;;;;;;;;;;;;;;;;;5070325;28;19996;-61
2022/01/06 04:08:09;;;;;;;;;;;;;;;;;;5070806;28;19989;-63
2022/01/06 04:10:34;;;;;;;;;;;;;;;;;;5070560;28;20013;-62
2022/01/06 04:12:59;;;;;;;;;;;;;;;;;;5070299;28;20046;-61
2022/01/06 04:15:26;;;;;;;;;;;;;;;;;;5069662;28;20001;-63
2022/01/06 04:17:51;;;;;;;;;;;;;;;;;;5052269;28;20459;-62
2022/01/06 04:20:17;;;;;;;;;;;;;;;;;;5070362;28;19997;-61
2022/01/06 04:22:42;;;;;;;;;;;;;;;;;;5069932;28;20368;-62
2022/01/06 04:25:07;;;;;;;;;;;;;;;;;;5052443;28;19993;-61
2022/01/06 04:27:32;;;;;;;;;;;;;;;;;;5070055;28;19989;-61
2022/01/06 04:29:58;;;;;;;;;;;;;;;;;;5070214;28;20009;-61
2022/01/06 04:32:23;;;;;;;;;;;;;;;;;;5070006;28;19993;-61
2022/01/06 04:34:48;;;;;;;;;;;;;;;;;;5069854;28;20448;-61
2022/01/06 04:37:13;;;;;;;;;;;;;;;;;;5070651;28;19993;-63
2022/01/06 04:39:39;;;;;;;;;;;;;;;;;;5069790;28;19989;-61
2022/01/06 04:42:04;;;;;;;;;;;;;;;;;;5070051;28;19989;-62
2022/01/06 04:44:29;;;;;;;;;;;;;;;;;;5070516;28;20448;-61
2022/01/06 04:46:54;;;;;;;;;;;;;;;;;;5068469;28;19985;-63
2022/01/06 04:49:22;;;;;;;;;;;;;;;;;;5069569;28;20126;-61
2022/01/06 04:51:47;;;;;;;;;;;;;;;;;;5069891;28;20448;-61
2022/01/06 04:54:12;;;;;;;;;;;;;;;;;;5069859;28;20012;-61
2022/01/06 04:56:37;;;;;;;;;;;;;;;;;;5069291;28;20118;-60
2022/01/06 04:59:03;;;;;;;;;;;;;;;;;;5069731;28;20053;-60
2022/01/06 05:01:28;;;;;;;;;;;;;;;;;;5069551;28;20088;-61
2022/01/06 05:03:53;;;;;;;;;;;;;;;;;;5051793;28;20651;-61
2022/01/06 05:06:19;;;;;;;;;;;;;;;;;;5069652;28;20011;-63
2022/01/06 05:08:44;;;;;;;;;;;;;;;;;;5069076;28;20028;-62
2022/01/06 05:11:09;;;;;;;;;;;;;;;;;;5069522;28;20012;-61
2022/01/06 05:13:36;;;;;;;;;;;;;;;;;;5051248;28;20087;-61
2022/01/06 05:16:01;;;;;;;;;;;;;;;;;;5069113;28;20084;-61
2022/01/06 05:18:26;;;;;;;;;;;;;;;;;;5069134;28;20004;-60
2022/01/06 05:20:51;;;;;;;;;;;;;;;;;;5068976;28;20361;-61
2022/01/06 05:23:19;;;;;;;;;;;;;;;;;;5069142;28;19997;-63
2022/01/06 05:25:44;;;;;;;;;;;;;;;;;;5069339;28;19994;-61
2022/01/06 05:28:09;;;;;;;;;;;;;;;;;;5068912;28;20395;-61
2022/01/06 05:30:35;;;;;;;;;;;;;;;;;;5068886;28;20488;-61
2022/01/06 05:33:00;;;;;;;;;;;;;;;;;;5069182;28;19995;-60
2022/01/06 05:35:25;;;;;;;;;;;;;;;;;;5069338;28;20461;-61
2022/01/06 05:37:50;;;;;;;;;;;;;;;;;;5069201;28;19993;-60
2022/01/06 05:40:16;;;;;;;;;;;;;;;;;;5069038;28;19988;-67
2022/01/06 05:42:42;;;;;;;;;;;;;;;;;;5050700;28;19988;-60
2022/01/06 05:45:07;;;;;;;;;;;;;;;;;;5069492;28;19985;-68
2022/01/06 05:47:32;;;;;;;;;;;;;;;;;;5068801;28;20040;-60
2022/01/06 05:49:57;;;;;;;;;;;;;;;;;;5050801;28;20418;-61
2022/01/06 05:52:23;;;;;;;;;;;;;;;;;;5068904;28;19993;-61
2022/01/06 05:54:48;;;;;;;;;;;;;;;;;;5068491;28;19997;-61
2022/01/06 05:57:15;;;;;;;;;;;;;;;;;;5087797;28;20123;-60
2022/01/06 05:59:41;;;;;;;;;;;;;;;;;;5088758;28;20024;-60
2022/01/06 06:02:06;;;;;;;;;;;;;;;;;;5070032;28;20081;-61
2022/01/06 06:04:31;;;;;;;;;;;;;;;;;;5089101;28;20013;-60
2022/01/06 06:06:57;;;;;;;;;;;;;;;;;;5088962;28;20050;-61
2022/01/06 06:09:22;;;;;;;;;;;;;;;;;;5088998;28;20123;-60
2022/01/06 06:11:47;;;;;;;;;;;;;;;;;;5088874;28;20723;-61
2022/01/06 06:14:12;;;;;;;;;;;;;;;;;;5089002;28;20087;-61
2022/01/06 06:16:38;;;;;;;;;;;;;;;;;;5088452;28;20126;-60
2022/01/06 06:19:03;;;;;;;;;;;;;;;;;;5088572;28;20119;-61
2022/01/06 06:21:28;;;;;;;;;;;;;;;;;;5088682;28;20039;-63
2022/01/06 06:23:53;;;;;;;;;;;;;;;;;;5088758;28;20060;-60
2022/01/06 06:26:19;;;;;;;;;;;;;;;;;;5087387;28;20095;-64
2022/01/06 06:28:44;;;;;;;;;;;;;;;;;;5088315;28;20002;-61
2022/01/06 06:31:09;;;;;;;;;;;;;;;;;;5088462;28;20333;-61
2022/01/06 06:33:34;;;;;;;;;;;;;;;;;;5070240;28;20039;-62
2022/01/06 06:36:00;;;;;;;;;;;;;;;;;;5088608;28;20000;-61
2022/01/06 06:38:25;;;;;;;;;;;;;;;;;;5088586;28;20053;-61
2022/01/06 06:40:50;;;;;;;;;;;;;;;;;;5087836;28;20436;-60
2022/01/06 06:43:15;;;;;;;;;;;;;;;;;;5088315;28;19993;-60
2022/01/06 06:45:41;;;;;;;;;;;;;;;;;;5088097;28;19989;-61
2022/01/06 06:48:06;;;;;;;;;;;;;;;;;;5069716;28;20000;-61
2022/01/06 06:50:31;;;;;;;;;;;;;;;;;;5087317;28;20019;-67
2022/01/06 06:52:58;;;;;;;;;;;;;;;;;;5088033;28;20091;-59
2022/01/06 06:55:23;;;;;;;;;;;;;;;;;;5088077;28;20202;-60
2022/01/06 06:57:49;;;;;;;;;;;;;;;;;;5088197;28;20519;-61
2022/01/06 07:00:14;;;;;;;;;;;;;;;;;;5087774;28;19997;-62
2022/01/06 07:02:39;;;;;;;;;;;;;;;;;;5087737;28;19996;-63
2022/01/06 07:05:04;;;;;;;;;;;;;;;;;;5087790;28;20406;-61
2022/01/06 07:07:30;;;;;;;;;;;;;;;;;;5088517;28;20436;-61
2022/01/06 07:09:55;;;;;;;;;;;;;;;;;;5090409;28;20064;-60
2022/01/06 07:12:20;;;;;;;;;;;;;;;;;;5091553;28;20356;-60
2022/01/06 07:14:45;;;;;;;;;;;;;;;;;;5090597;28;19993;-61
2022/01/06 07:17:11;;;;;;;;;;;;;;;;;;5098056;28;20417;-62
2022/01/06 07:19:37;;;;;;;;;;;;;;;;;;5092169;28;19989;-61
2022/01/06 07:22:02;;;;;;;;;;;;;;;;;;5051535;28;19999;-64
2022/01/06 07:24:28;;;;;;;;;;;;;;;;;;5078024;28;20080;-63
2022/01/06 07:26:53;;;;;;;;;;;;;;;;;;5088480;28;20520;-63
2022/01/06 07:29:18;;;;;;;;;;;;;;;;;;5089265;28;20004;-61
2022/01/06 07:31:43;;;;;;;;;;;;;;;;;;5078811;28;20035;-60
2022/01/06 07:34:09;;;;;;;;;;;;;;;;;;5077499;28;20039;-61
2022/01/06 07:36:34;;;;;;;;;;;;;;;;;;5076918;28;20045;-62
2022/01/06 07:38:59;;;;;;;;;;;;;;;;;;5070585;28;19997;-67
2022/01/06 07:41:24;;;;;;;;;;;;;;;;;;5070449;28;20024;-62
2022/01/06 07:43:50;;;;;;;;;;;;;;;;;;5072284;28;20084;-63
2022/01/06 07:46:15;;;;;;;;;;;;;;;;;;5089467;28;20379;-67
2022/01/06 07:48:57;;;;;;;;;;;;;;;;;;5051256;28;19989;-62
2022/01/06 07:51:22;;;;;;;;;;;;;;;;;;5070706;28;19996;-61
2022/01/06 07:53:47;;;;;;;;;;;;;;;;;;5090778;28;20252;-61
2022/01/06 07:56:12;;;;;;;;;;;;;;;;;;5090911;28;19997;-61
2022/01/06 07:58:38;;;;;;;;;;;;;;;;;;5072433;28;20039;-62
2022/01/06 08:01:03;;;;;;;;;;;;;;;;;;5090515;28;20145;-61
2022/01/06 08:03:28;;;;;;;;;;;;;;;;;;5088832;28;20016;-65
2022/01/06 08:05:54;;;;;;;;;;;;;;;;;;5072224;28;20001;-61
2022/01/06 08:08:19;;;;;;;;;;;;;;;;;;5089964;28;19989;-61
2022/01/06 08:10:44;;;;;;;;;;;;;;;;;;5089867;28;20048;-61
2022/01/06 08:13:10;;;;;;;;;;;;;;;;;;5088765;28;20039;-64
2022/01/06 08:15:35;;;;;;;;;;;;;;;;;;5072067;28;19996;-67
2022/01/06 08:18:00;;;;;;;;;;;;;;;;;;5083837;28;20447;-62
2022/01/06 08:20:25;;;;;;;;;;;;;;;;;;5068207;28;20134;-63
2022/01/06 08:22:51;;;;;;;;;;;;;;;;;;5068172;28;19997;-62
2022/01/06 08:25:16;;;;;;;;;;;;;;;;;;5069669;28;20078;-62
2022/01/06 08:27:41;;;;;;;;;;;;;;;;;;5079185;28;20015;-61
2022/01/06 08:30:07;;;;;;;;;;;;;;;;;;5089526;28;20013;-62
2022/01/06 08:32:32;;;;;;;;;;;;;;;;;;5089966;28;20062;-63
2022/01/06 08:34:57;;;;;;;;;;;;;;;;;;5089512;28;20000;-64
2022/01/06 08:37:22;;;;;;;;;;;;;;;;;;5089680;28;20036;-61
2022/01/06 08:39:48;;;;;;;;;;;;;;;;;;5089396;28;20042;-63
2022/01/06 08:42:13;;;;;;;;;;;;;;;;;;5089887;28;20367;-62
2022/01/06 08:44:39;;;;;;;;;;;;;;;;;;5088298;28;19996;-61
2022/01/06 08:47:05;;;;;;;;;;;;;;;;;;5071263;28;19992;-61
2022/01/06 08:49:31;;;;;;;;;;;;;;;;;;5086823;28;20516;-68
2022/01/06 08:51:56;;;;;;;;;;;;;;;;;;5089212;28;20079;-62
2022/01/06 08:54:21;;;;;;;;;;;;;;;;;;5090233;28;19985;-61
2022/01/06 08:56:47;;;;;;;;;;;;;;;;;;5087150;28;19996;-62
2022/01/06 08:59:12;;;;;;;;;;;;;;;;;;5087764;28;20020;-61
2022/01/06 09:01:37;;;;;;;;;;;;;;;;;;5087699;28;20050;-62
2022/01/06 09:04:02;;;;;;;;;;;;;;;;;;5087913;28;20491;-61
2022/01/06 09:06:28;;;;;;;;;;;;;;;;;;5052919;28;20070;-61
2022/01/06 09:08:53;;;;;;;;;;;;;;;;;;5086173;28;20016;-63
2022/01/06 09:11:18;;;;;;;;;;;;;;;;;;5086649;28;19989;-61
2022/01/06 09:13:43;;;;;;;;;;;;;;;;;;5087583;28;20082;-63
2022/01/06 09:16:09;;;;;;;;;;;;;;;;;;5087678;28;19993;-61
2022/01/06 09:18:34;;;;;;;;;;;;;;;;;;5087660;28;20104;-61
2022/01/06 09:20:59;;;;;;;;;;;;;;;;;;5087325;28;19996;-62
2022/01/06 09:23:25;;;;;;;;;;;;;;;;;;5088142;28;20013;-61
2022/01/06 09:25:50;;;;;;;;;;;;;;;;;;5089518;28;19989;-61
2022/01/06 09:28:15;;;;;;;;;;;;;;;;;;5089023;28;19993;-61
2022/01/06 09:30:40;;;;;;;;;;;;;;;;;;5089219;28;20016;-67
2022/01/06 09:33:06;;;;;;;;;;;;;;;;;;5088856;28;20091;-60
2022/01/06 09:35:31;;;;;;;;;;;;;;;;;;5089176;28;20347;-61
2022/01/06 09:37:56;;;;;;;;;;;;;;;;;;5089327;28;20444;-61
2022/01/06 09:40:21;;;;;;;;;;;;;;;;;;5089546;28;19999;-60
2022/01/06 09:42:47;;;;;;;;;;;;;;;;;;5088988;28;20418;-60
2022/01/06 09:45:12;;;;;;;;;;;;;;;;;;5089559;28;20017;-60
2022/01/06 09:47:38;;;;;;;;;;;;;;;;;;5089175;28;20054;-60
2022/01/06 09:50:03;;;;;;;;;;;;;;;;;;5088626;28;20017;-62
2022/01/06 09:52:28;;;;;;;;;;;;;;;;;;5053939;28;19999;-65
2022/01/06 09:54:53;;;;;;;;;;;;;;;;;;5088211;28;20448;-66
2022/01/06 09:57:19;;;;;;;;;;;;;;;;;;5089073;28;20028;-61
2022/01/06 09:59:44;;;;;;;;;;;;;;;;;;5088326;28;20015;-61
2022/01/06 10:02:16;;;;;;;;;;;;;;;;;;5087362;28;19993;-61
2022/01/06 10:04:41;;;;;;;;;;;;;;;;;;5081635;28;20011;-65
2022/01/06 10:07:06;;;;;;;;;;;;;;;;;;5072968;28;19992;-61
2022/01/06 10:09:33;;;;;;;;;;;;;;;;;;5085218;28;20008;-62
2022/01/06 10:11:58;;;;;;;;;;;;;;;;;;5086310;28;19989;-62
2022/01/06 10:14:32;;;;;;;;;;;;;;;;;;5068896;28;20364;-61
2022/01/06 10:16:57;;;;;;;;;;;;;;;;;;5086971;28;20071;-61
2022/01/06 10:19:22;;;;;;;;;;;;;;;;;;5087487;28;19996;-64
2022/01/06 10:21:47;;;;;;;;;;;;;;;;;;5052777;28;19992;-61
2022/01/06 10:24:13;;;;;;;;;;;;;;;;;;5087045;28;20485;-62
2022/01/06 10:26:38;;;;;;;;;;;;;;;;;;5086108;28;19989;-63
2022/01/06 10:29:03;;;;;;;;;;;;;;;;;;5067088;28;20536;-62
2022/01/06 10:31:29;;;;;;;;;;;;;;;;;;5085502;28;20440;-63
2022/01/06 10:33:54;;;;;;;;;;;;;;;;;;5085476;28;20133;-65
2022/01/06 10:36:19;;;;;;;;;;;;;;;;;;5068355;28;20110;-60
2022/01/06 10:38:44;;;;;;;;;;;;;;;;;;5084473;28;20079;-64
2022/01/06 10:41:10;;;;;;;;;;;;;;;;;;5088202;28;19995;-61
2022/01/06 10:43:35;;;;;;;;;;;;;;;;;;5088477;28;20054;-63
2022/01/06 10:46:01;;;;;;;;;;;;;;;;;;5091857;28;20467;-63
2022/01/06 10:48:26;;;;;;;;;;;;;;;;;;5091828;28;19989;-66
2022/01/06 10:50:52;;;;;;;;;;;;;;;;;;5073456;28;20020;-67
2022/01/06 10:53:17;;;;;;;;;;;;;;;;;;5092379;28;19989;-61
2022/01/06 10:55:43;;;;;;;;;;;;;;;;;;5091664;28;19999;-62
2022/01/06 10:58:11;;;;;;;;;;;;;;;;;;5091386;28;19999;-61
2022/01/06 11:00:36;;;;;;;;;;;;;;;;;;5091072;28;20000;-59
2022/01/06 11:03:02;;;;;;;;;;;;;;;;;;5091475;28;19996;-58
2022/01/06 11:05:27;;;;;;;;;;;;;;;;;;5090973;28;20000;-59
2022/01/06 11:07:52;;;;;;;;;;;;;;;;;;5091372;28;20255;-60
2022/01/06 11:10:21;;;;;;;;;;;;;;;;;;5091671;28;20009;-59
2022/01/06 11:12:47;;;;;;;;;;;;;;;;;;5091249;28;20317;-66
2022/01/06 11:15:13;;;;;;;;;;;;;;;;;;5073343;28;20044;-66
2022/01/06 11:17:38;;;;;;;;;;;;;;;;;;5091323;28;20035;-66
2022/01/06 11:20:03;;;;;;;;;;;;;;;;;;5089862;28;20576;-66
2022/01/06 11:22:29;;;;;;;;;;;;;;;;;;5089669;28;20086;-67
2022/01/06 11:24:54;;;;;;;;;;;;;;;;;;5069778;28;19996;-66
2022/01/06 11:27:19;;;;;;;;;;;;;;;;;;5087957;28;19989;-67
2022/01/06 11:29:45;;;;;;;;;;;;;;;;;;5088534;28;20016;-68
2022/01/06 11:32:10;;;;;;;;;;;;;;;;;;5087231;28;19989;-66
2022/01/06 11:34:35;;;;;;;;;;;;;;;;;;5069838;28;19997;-67
2022/01/06 11:37:01;;;;;;;;;;;;;;;;;;5068997;28;19996;-66
2022/01/06 11:39:26;;;;;;;;;;;;;;;;;;5087721;28;20033;-64
2022/01/06 11:41:53;;;;;;;;;;;;;;;;;;5089103;28;19993;-64
2022/01/06 11:44:18;;;;;;;;;;;;;;;;;;5089337;28;19992;-64
2022/01/06 11:46:44;;;;;;;;;;;;;;;;;;5088849;28;20012;-64
2022/01/06 11:49:10;;;;;;;;;;;;;;;;;;5089323;28;20056;-65
2022/01/06 11:51:37;;;;;;;;;;;;;;;;;;5088085;28;20495;-65
2022/01/06 11:54:02;;;;;;;;;;;;;;;;;;5089541;28;20015;-64
2022/01/06 11:56:28;;;;;;;;;;;;;;;;;;5088607;28;20416;-65
2022/01/06 11:58:53;;;;;;;;;;;;;;;;;;5088570;28;19993;-65
2022/01/06 12:01:18;;;;;;;;;;;;;;;;;;5089161;28;20046;-64
2022/01/06 12:03:44;;;;;;;;;;;;;;;;;;5088814;28;20013;-65
2022/01/06 12:06:10;;;;;;;;;;;;;;;;;;5087676;28;20612;-65
2022/01/06 12:08:35;;;;;;;;;;;;;;;;;;5087843;28;19996;-65
2022/01/06 12:11:01;;;;;;;;;;;;;;;;;;5088538;28;20364;-64
2022/01/06 12:13:26;;;;;;;;;;;;;;;;;;5090084;28;20083;-64
2022/01/06 12:15:52;;;;;;;;;;;;;;;;;;5090776;28;19992;-66
2022/01/06 12:18:17;;;;;;;;;;;;;;;;;;5090962;28;19992;-59
2022/01/06 12:20:43;;;;;;;;;;;;;;;;;;5090339;28;20033;-59
2022/01/06 12:23:08;;;;;;;;;;;;;;;;;;5090744;28;20004;-65
2022/01/06 12:25:34;;;;;;;;;;;;;;;;;;5090746;28;19985;-63
2022/01/06 12:27:59;;;;;;;;;;;;;;;;;;5090924;28;20440;-63
2022/01/06 12:30:26;;;;;;;;;;;;;;;;;;5090487;28;20016;-64
2022/01/06 12:32:51;;;;;;;;;;;;;;;;;;5090152;28;20000;-64
2022/01/06 12:35:17;;;;;;;;;;;;;;;;;;5090027;28;19997;-63
2022/01/06 12:37:42;;;;;;;;;;;;;;;;;;5072069;28;20004;-63
2022/01/06 12:40:07;;;;;;;;;;;;;;;;;;5090232;28;20083;-63
2022/01/06 12:42:32;;;;;;;;;;;;;;;;;;5090034;28;19993;-64
2022/01/06 12:44:58;;;;;;;;;;;;;;;;;;5090044;28;19989;-63
2022/01/06 12:47:23;;;;;;;;;;;;;;;;;;5089928;28;20000;-63
2022/01/06 12:49:48;;;;;;;;;;;;;;;;;;5089677;28;20527;-62
2022/01/06 12:52:14;;;;;;;;;;;;;;;;;;5090362;28;19989;-63
2022/01/06 12:54:40;;;;;;;;;;;;;;;;;;5089930;28;19989;-62
2022/01/06 12:57:07;;;;;;;;;;;;;;;;;;5089866;28;19988;-63
2022/01/06 12:59:34;;;;;;;;;;;;;;;;;;5089753;28;20043;-62
2022/01/06 13:01:59;;;;;;;;;;;;;;;;;;5071635;28;20008;-63
2022/01/06 13:04:26;;;;;;;;;;;;;;;;;;5089674;28;20009;-63
2022/01/06 13:06:51;;;;;;;;;;;;;;;;;;5087602;28;20119;-67
2022/01/06 13:09:16;;;;;;;;;;;;;;;;;;5089666;28;20119;-62
2022/01/06 13:11:44;;;;;;;;;;;;;;;;;;5089731;28;19989;-63
2022/01/06 13:14:10;;;;;;;;;;;;;;;;;;5089635;28;19989;-62
2022/01/06 13:16:35;;;;;;;;;;;;;;;;;;5089366;28;20034;-64
2022/01/06 13:19:01;;;;;;;;;;;;;;;;;;5089673;28;20032;-63
2022/01/06 13:21:28;;;;;;;;;;;;;;;;;;5089947;28;20451;-62
2022/01/06 13:23:54;;;;;;;;;;;;;;;;;;5071357;28;19997;-63
2022/01/06 13:26:19;;;;;;;;;;;;;;;;;;5089783;28;19995;-62
2022/01/06 13:28:44;;;;;;;;;;;;;;;;;;5089104;28;20431;-62
2022/01/06 13:31:10;;;;;;;;;;;;;;;;;;5089584;28;20032;-62
2022/01/06 13:33:36;;;;;;;;;;;;;;;;;;5089600;28;20006;-63
2022/01/06 13:36:01;;;;;;;;;;;;;;;;;;5071305;28;20019;-62
2022/01/06 13:38:27;;;;;;;;;;;;;;;;;;5089294;28;20464;-65
2022/01/06 13:40:52;;;;;;;;;;;;;;;;;;5070925;28;19993;-63
2022/01/06 13:43:18;;;;;;;;;;;;;;;;;;5089022;28;20038;-64
2022/01/06 13:45:45;;;;;;;;;;;;;;;;;;5087948;28;20044;-64
2022/01/06 13:48:21;;;;;;;;;;;;;;;;;;5085711;28;20003;-65
2022/01/06 13:51:04;;;;;;;;;;;;;;;;;;5068807;28;20012;-63
2022/01/06 13:53:30;;;;;;;;;;;;;;;;;;5088388;28;20024;-67
2022/01/06 13:55:55;;;;;;;;;;;;;;;;;;5089261;28;20024;-63
2022/01/06 13:58:20;;;;;;;;;;;;;;;;;;5070892;28;20379;-68
2022/01/06 14:00:45;;;;;;;;;;;;;;;;;;5088808;28;19989;-63
2022/01/06 14:03:11;;;;;;;;;;;;;;;;;;5088688;28;20147;-63
2022/01/06 14:05:36;;;;;;;;;;;;;;;;;;5088918;28;19989;-64
2022/01/06 14:08:01;;;;;;;;;;;;;;;;;;5089176;28;19996;-63
2022/01/06 14:10:27;;;;;;;;;;;;;;;;;;5088735;28;20008;-63
2022/01/06 14:12:52;;;;;;;;;;;;;;;;;;5088785;28;20036;-63
2022/01/06 14:15:19;;;;;;;;;;;;;;;;;;5088962;28;20448;-63
2022/01/06 14:17:44;;;;;;;;;;;;;;;;;;5089875;28;20015;-67
2022/01/06 14:20:10;;;;;;;;;;;;;;;;;;5092733;28;20566;-66
2022/01/06 14:22:35;;;;;;;;;;;;;;;;;;5092226;28;19996;-67
2022/01/06 14:25:00;;;;;;;;;;;;;;;;;;5092402;28;19988;-67
2022/01/06 14:27:25;;;;;;;;;;;;;;;;;;5092381;28;19997;-67
2022/01/06 14:29:51;;;;;;;;;;;;;;;;;;5092453;28;20005;-66
2022/01/06 14:32:16;;;;;;;;;;;;;;;;;;5089267;28;20452;-66
2022/01/06 14:34:41;;;;;;;;;;;;;;;;;;5073685;28;20047;-67
2022/01/06 14:37:07;;;;;;;;;;;;;;;;;;5092037;28;20078;-67
2022/01/06 14:39:33;;;;;;;;;;;;;;;;;;5092096;28;20459;-68
2022/01/06 14:41:58;;;;;;;;;;;;;;;;;;5090775;28;20087;-68
2022/01/06 14:44:23;;;;;;;;;;;;;;;;;;5092117;28;20138;-68
2022/01/06 14:46:49;;;;;;;;;;;;;;;;;;5092004;28;19989;-67
2022/01/06 14:49:14;;;;;;;;;;;;;;;;;;5092336;28;20013;-67
2022/01/06 14:51:39;;;;;;;;;;;;;;;;;;5091558;28;20095;-67
2022/01/06 14:54:04;;;;;;;;;;;;;;;;;;5092063;28;20000;-67
2022/01/06 14:56:30;;;;;;;;;;;;;;;;;;5091791;28;19999;-66
2022/01/06 14:58:55;;;;;;;;;;;;;;;;;;5089097;28;19996;-66
2022/01/06 15:01:20;;;;;;;;;;;;;;;;;;5073925;28;20099;-67
2022/01/06 15:03:46;;;;;;;;;;;;;;;;;;5091145;28;20005;-67
2022/01/06 15:06:11;;;;;;;;;;;;;;;;;;5088726;28;20095;-68
2022/01/06 15:08:36;;;;;;;;;;;;;;;;;;5089326;28;20027;-68
2022/01/06 15:11:02;;;;;;;;;;;;;;;;;;5090953;28;20012;-66
2022/01/06 15:13:27;;;;;;;;;;;;;;;;;;5076749;28;20440;-66
2022/01/06 15:15:53;;;;;;;;;;;;;;;;;;5084408;28;20047;-70
2022/01/06 15:18:18;;;;;;;;;;;;;;;;;;5090800;28;20042;-68
2022/01/06 15:20:44;;;;;;;;;;;;;;;;;;5089253;28;19992;-69
2022/01/06 15:23:09;;;;;;;;;;;;;;;;;;5088181;28;20031;-70
2022/01/06 15:25:34;;;;;;;;;;;;;;;;;;5087626;28;20483;-70
2022/01/06 15:28:00;;;;;;;;;;;;;;;;;;5087370;28;19985;-68
2022/01/06 15:30:25;;;;;;;;;;;;;;;;;;5086703;28;20095;-71
2022/01/06 15:32:50;;;;;;;;;;;;;;;;;;5086810;28;19989;-67
2022/01/06 15:35:15;;;;;;;;;;;;;;;;;;5088985;28;20000;-70
2022/01/06 15:37:41;;;;;;;;;;;;;;;;;;5089883;28;20458;-67
2022/01/06 15:40:06;;;;;;;;;;;;;;;;;;5091407;28;19989;-66
2022/01/06 15:42:31;;;;;;;;;;;;;;;;;;5091306;28;20006;-66
2022/01/06 15:44:56;;;;;;;;;;;;;;;;;;5091251;28;20095;-66
2022/01/06 15:47:22;;;;;;;;;;;;;;;;;;5091041;28;20087;-66
2022/01/06 15:49:47;;;;;;;;;;;;;;;;;;5090773;28;20009;-66
2022/01/06 15:52:13;;;;;;;;;;;;;;;;;;5091105;28;19993;-66
2022/01/06 15:54:38;;;;;;;;;;;;;;;;;;5090601;28;20500;-67
2022/01/06 15:57:03;;;;;;;;;;;;;;;;;;5091266;28;20015;-70
2022/01/06 15:59:34;;;;;;;;;;;;;;;;;;5091009;28;20031;-65
2022/01/06 16:07:10;;;;;;;;;;;;;;;;;;5087547;28;20000;-61
2022/01/06 16:09:35;;;;;;;;;;;;;;;;;;5087256;28;20020;-63
2022/01/06 16:12:00;;;;;;;;;;;;;;;;;;5089977;28;20421;-60
2022/01/06 16:14:26;;;;;;;;;;;;;;;;;;5090203;28;20486;-61
2022/01/06 16:16:55;;;;;;;;;;;;;;;;;;5072321;28;20060;-61
2022/01/06 16:19:20;;;;;;;;;;;;;;;;;;5090330;28;20032;-61
2022/01/06 16:21:45;;;;;;;;;;;;;;;;;;5088443;28;20401;-61
2022/01/06 16:24:11;;;;;;;;;;;;;;;;;;5088573;28;19993;-62
2022/01/06 16:26:36;;;;;;;;;;;;;;;;;;5088181;28;19989;-61
2022/01/06 16:29:01;;;;;;;;;;;;;;;;;;5088312;28;19993;-64
2022/01/06 16:31:27;;;;;;;;;;;;;;;;;;5087870;28;19999;-62
2022/01/06 16:33:52;;;;;;;;;;;;;;;;;;5088257;28;20084;-62
2022/01/06 16:36:17;;;;;;;;;;;;;;;;;;5090045;28;19996;-67
2022/01/06 16:38:43;;;;;;;;;;;;;;;;;;5090071;28;20035;-60
2022/01/06 16:41:08;;;;;;;;;;;;;;;;;;5089347;28;20322;-61
2022/01/06 16:43:34;;;;;;;;;;;;;;;;;;5089778;28;20091;-60
2022/01/06 16:46:00;;;;;;;;;;;;;;;;;;5089868;28;19993;-60
2022/01/06 16:48:25;;;;;;;;;;;;;;;;;;5071766;28;20509;-61
2022/01/06 16:50:50;;;;;;;;;;;;;;;;;;5089793;28;20004;-63